createdAt,value
2019-03-08T00:00:08.681Z,992.87
2019-03-08T00:01:12.933Z,992.86
2019-03-08T00:02:17.188Z,992.89
2019-03-08T00:03:21.368Z,992.92
2019-03-08T00:04:25.616Z,992.90
2019-03-08T00:05:29.913Z,992.86
2019-03-08T00:06:34.172Z,992.90
2019-03-08T00:07:38.483Z,992.87
2019-03-08T00:08:42.717Z,992.89
2019-03-08T00:09:47.008Z,992.83
2019-03-08T00:10:51.332Z,992.83
2019-03-08T00:11:55.529Z,992.80
2019-03-08T00:12:59.770Z,992.76
2019-03-08T00:14:03.946Z,992.86
2019-03-08T00:15:08.223Z,992.83
2019-03-08T00:16:12.500Z,992.84
2019-03-08T00:17:16.698Z,992.75
2019-03-08T00:18:20.875Z,992.75
2019-03-08T00:19:25.200Z,992.75
2019-03-08T00:20:29.455Z,992.74
2019-03-08T00:21:33.701Z,992.70
2019-03-08T00:22:37.991Z,992.75
2019-03-08T00:23:42.239Z,992.63
2019-03-08T00:24:46.506Z,992.59
2019-03-08T00:25:50.735Z,992.59
2019-03-08T00:26:55.024Z,992.60
2019-03-08T00:27:59.366Z,992.53
2019-03-08T00:29:03.756Z,992.50
2019-03-08T00:30:07.925Z,992.50
2019-03-08T00:31:12.181Z,992.45
2019-03-08T00:32:16.455Z,992.44
2019-03-08T00:33:20.698Z,992.43
2019-03-08T00:34:24.890Z,992.41
2019-03-08T00:35:29.184Z,992.39
2019-03-08T00:36:33.453Z,992.37
2019-03-08T00:37:37.709Z,992.33
2019-03-08T00:38:41.883Z,992.30
2019-03-08T00:39:46.226Z,992.30
2019-03-08T00:40:50.365Z,992.24
2019-03-08T00:41:54.724Z,992.28
2019-03-08T00:42:58.991Z,992.26
2019-03-08T00:44:03.146Z,992.26
2019-03-08T00:45:07.451Z,992.24
2019-03-08T00:46:11.606Z,992.25
2019-03-08T00:47:15.917Z,992.16
2019-03-08T00:48:20.132Z,992.05
2019-03-08T00:49:24.352Z,992.10
2019-03-08T00:50:28.641Z,992.06
2019-03-08T00:51:32.912Z,992.11
2019-03-08T00:52:37.047Z,992.09
2019-03-08T00:53:41.258Z,992.02
2019-03-08T00:54:45.624Z,991.95
2019-03-08T00:55:49.864Z,991.95
2019-03-08T00:56:54.079Z,991.89
2019-03-08T00:57:58.241Z,991.88
2019-03-08T00:59:02.548Z,991.90
2019-03-08T01:00:06.829Z,991.87
2019-03-08T01:01:11.085Z,991.88
2019-03-08T01:02:15.227Z,991.86
2019-03-08T01:03:19.549Z,991.86
2019-03-08T01:04:23.717Z,991.87
2019-03-08T01:05:28.047Z,991.86
2019-03-08T01:06:32.169Z,991.90
2019-03-08T01:07:36.496Z,991.79
2019-03-08T01:08:40.749Z,991.80
2019-03-08T01:09:45.030Z,991.78
2019-03-08T01:10:49.312Z,991.80
2019-03-08T01:11:53.570Z,991.76
2019-03-08T01:12:57.868Z,991.71
2019-03-08T01:14:02.129Z,991.63
2019-03-08T01:15:06.408Z,991.69
2019-03-08T01:16:10.668Z,991.57
2019-03-08T01:17:14.943Z,991.57
2019-03-08T01:18:19.108Z,991.57
2019-03-08T01:19:23.400Z,991.53
2019-03-08T01:20:27.694Z,991.53
2019-03-08T01:21:32.049Z,991.52
2019-03-08T01:22:36.175Z,991.54
2019-03-08T01:23:40.400Z,991.49
2019-03-08T01:24:44.753Z,991.45
2019-03-08T01:25:48.902Z,991.51
2019-03-08T01:26:53.177Z,991.46
2019-03-08T01:27:57.456Z,991.42
2019-03-08T01:29:01.703Z,991.31
2019-03-08T01:30:05.986Z,991.33
2019-03-08T01:31:10.267Z,991.30
2019-03-08T01:32:14.490Z,991.28
2019-03-08T01:33:18.735Z,991.31
2019-03-08T01:34:23.004Z,991.32
2019-03-08T01:35:27.305Z,991.32
2019-03-08T01:36:31.598Z,991.29
2019-03-08T01:37:35.834Z,991.29
2019-03-08T01:38:40.095Z,991.30
2019-03-08T01:39:44.291Z,991.32
2019-03-08T01:40:48.616Z,991.20
2019-03-08T01:41:52.800Z,991.27
2019-03-08T01:42:57.108Z,991.21
2019-03-08T01:44:01.336Z,991.21
2019-03-08T01:45:05.636Z,991.20
2019-03-08T01:46:09.893Z,991.18
2019-03-08T01:47:14.132Z,991.10
2019-03-08T01:48:18.378Z,991.11
2019-03-08T01:49:22.666Z,991.13
2019-03-08T01:50:26.921Z,991.11
2019-03-08T01:51:31.082Z,991.09
2019-03-08T01:52:35.347Z,991.10
2019-03-08T01:53:39.592Z,991.02
2019-03-08T01:54:43.883Z,991.04
2019-03-08T01:55:48.172Z,991.05
2019-03-08T01:56:52.437Z,991.01
2019-03-08T01:57:56.706Z,990.97
2019-03-08T01:59:00.954Z,991.00
2019-03-08T02:00:05.210Z,990.98
2019-03-08T02:01:09.495Z,990.97
2019-03-08T02:02:13.755Z,990.93
2019-03-08T02:03:18.024Z,990.95
2019-03-08T02:04:22.280Z,990.91
2019-03-08T02:05:26.566Z,990.94
2019-03-08T02:06:30.843Z,990.86
2019-03-08T02:07:35.085Z,990.97
2019-03-08T02:08:39.268Z,990.85
2019-03-08T02:09:43.568Z,990.90
2019-03-08T02:10:47.831Z,990.81
2019-03-08T02:11:52.094Z,990.87
2019-03-08T02:12:56.334Z,990.76
2019-03-08T02:14:00.616Z,990.80
2019-03-08T02:15:04.878Z,990.82
2019-03-08T02:16:09.200Z,990.73
2019-03-08T02:17:13.489Z,990.79
2019-03-08T02:18:17.770Z,990.76
2019-03-08T02:19:22.140Z,990.80
2019-03-08T02:20:26.367Z,990.69
2019-03-08T02:21:30.651Z,990.69
2019-03-08T02:22:34.884Z,990.69
2019-03-08T02:23:39.139Z,990.67
2019-03-08T02:24:43.418Z,990.69
2019-03-08T02:25:47.682Z,990.64
2019-03-08T02:26:51.960Z,990.58
2019-03-08T02:27:56.245Z,990.59
2019-03-08T02:29:00.516Z,990.56
2019-03-08T02:30:04.700Z,990.57
2019-03-08T02:31:12.034Z,990.50
2019-03-08T02:32:15.377Z,990.53
2019-03-08T02:33:19.591Z,990.56
2019-03-08T02:34:23.767Z,990.54
2019-03-08T02:35:28.087Z,990.50
2019-03-08T02:36:32.382Z,990.49
2019-03-08T02:37:36.520Z,990.48
2019-03-08T02:38:40.839Z,990.49
2019-03-08T02:39:45.101Z,990.47
2019-03-08T02:40:49.399Z,990.51
2019-03-08T02:41:53.677Z,990.47
2019-03-08T02:42:57.846Z,990.46
2019-03-08T02:44:02.133Z,990.45
2019-03-08T02:45:06.399Z,990.46
2019-03-08T02:46:10.656Z,990.43
2019-03-08T02:47:14.917Z,990.40
2019-03-08T02:48:19.067Z,990.39
2019-03-08T02:49:23.361Z,990.36
2019-03-08T02:50:27.643Z,990.40
2019-03-08T02:51:31.896Z,990.36
2019-03-08T02:52:36.177Z,990.34
2019-03-08T02:53:40.337Z,990.44
2019-03-08T02:54:44.514Z,990.37
2019-03-08T02:55:48.728Z,990.36
2019-03-08T02:56:53.031Z,990.35
2019-03-08T02:57:57.297Z,990.32
2019-03-08T02:59:01.561Z,990.36
2019-03-08T03:00:05.825Z,990.37
2019-03-08T03:01:09.983Z,990.35
2019-03-08T03:02:14.304Z,990.33
2019-03-08T03:03:18.420Z,990.34
2019-03-08T03:04:22.728Z,990.32
2019-03-08T03:05:26.971Z,990.34
2019-03-08T03:06:31.258Z,990.29
2019-03-08T03:07:35.635Z,990.35
2019-03-08T03:08:39.835Z,990.28
2019-03-08T03:09:43.993Z,990.29
2019-03-08T03:10:48.195Z,990.35
2019-03-08T03:11:52.511Z,990.27
2019-03-08T03:12:56.809Z,990.30
2019-03-08T03:14:01.062Z,990.29
2019-03-08T03:15:05.227Z,990.29
2019-03-08T03:16:09.544Z,990.24
2019-03-08T03:17:13.905Z,990.24
2019-03-08T03:18:18.050Z,990.24
2019-03-08T03:19:22.368Z,990.14
2019-03-08T03:20:26.616Z,990.12
2019-03-08T03:21:30.852Z,990.15
2019-03-08T03:22:35.083Z,990.17
2019-03-08T03:23:39.322Z,990.19
2019-03-08T03:24:43.567Z,990.20
2019-03-08T03:25:47.823Z,990.22
2019-03-08T03:26:51.984Z,990.23
2019-03-08T03:27:56.312Z,990.15
2019-03-08T03:29:00.444Z,990.14
2019-03-08T03:30:04.718Z,990.12
2019-03-08T03:31:08.910Z,990.14
2019-03-08T03:32:13.138Z,990.14
2019-03-08T03:33:17.358Z,990.09
2019-03-08T03:34:21.548Z,990.08
2019-03-08T03:35:25.754Z,990.12
2019-03-08T03:36:29.986Z,990.08
2019-03-08T03:37:34.309Z,990.12
2019-03-08T03:38:38.579Z,990.10
2019-03-08T03:39:42.718Z,990.12
2019-03-08T03:40:46.929Z,990.19
2019-03-08T03:41:51.089Z,990.12
2019-03-08T03:42:55.413Z,990.12
2019-03-08T03:43:59.682Z,990.14
2019-03-08T03:45:03.922Z,990.08
2019-03-08T03:46:08.176Z,990.08
2019-03-08T03:47:12.418Z,990.07
2019-03-08T03:48:16.687Z,990.11
2019-03-08T03:49:20.921Z,990.05
2019-03-08T03:50:25.176Z,990.03
2019-03-08T03:51:29.419Z,990.02
2019-03-08T03:52:33.679Z,990.03
2019-03-08T03:53:37.969Z,990.02
2019-03-08T03:54:42.189Z,990.09
2019-03-08T03:55:46.381Z,990.09
2019-03-08T03:56:50.618Z,990.09
2019-03-08T03:57:54.842Z,990.02
2019-03-08T03:58:59.005Z,990.02
2019-03-08T04:00:03.186Z,990.00
2019-03-08T04:01:07.503Z,989.99
2019-03-08T04:02:11.711Z,990.08
2019-03-08T04:03:15.863Z,989.97
2019-03-08T04:04:20.094Z,989.98
2019-03-08T04:05:24.270Z,990.00
2019-03-08T04:06:28.527Z,989.98
2019-03-08T04:07:32.679Z,990.02
2019-03-08T04:08:36.973Z,989.96
2019-03-08T04:09:41.130Z,990.00
2019-03-08T04:10:45.286Z,990.03
2019-03-08T04:11:49.499Z,990.02
2019-03-08T04:12:53.696Z,990.04
2019-03-08T04:13:57.878Z,990.03
2019-03-08T04:15:02.067Z,990.07
2019-03-08T04:16:06.347Z,990.07
2019-03-08T04:17:10.497Z,990.08
2019-03-08T04:18:14.779Z,990.04
2019-03-08T04:19:19.039Z,990.05
2019-03-08T04:20:23.158Z,990.13
2019-03-08T04:21:27.369Z,990.02
2019-03-08T04:22:31.579Z,990.09
2019-03-08T04:23:35.783Z,990.09
2019-03-08T04:24:40.010Z,990.12
2019-03-08T04:25:44.322Z,990.09
2019-03-08T04:26:48.564Z,990.12
2019-03-08T04:27:52.724Z,990.19
2019-03-08T04:28:56.989Z,990.14
2019-03-08T04:30:01.153Z,990.15
2019-03-08T04:31:05.512Z,990.11
2019-03-08T04:32:09.763Z,990.12
2019-03-08T04:33:14.020Z,990.18
2019-03-08T04:34:18.190Z,990.12
2019-03-08T04:35:22.468Z,990.12
2019-03-08T04:36:26.694Z,990.16
2019-03-08T04:37:30.868Z,990.15
2019-03-08T04:38:35.073Z,990.17
2019-03-08T04:39:39.294Z,990.16
2019-03-08T04:40:43.456Z,990.13
2019-03-08T04:41:47.787Z,990.15
2019-03-08T04:42:52.058Z,990.15
2019-03-08T04:43:56.311Z,990.19
2019-03-08T04:45:00.558Z,990.11
2019-03-08T04:46:04.763Z,990.12
2019-03-08T04:47:08.893Z,990.11
2019-03-08T04:48:13.084Z,990.14
2019-03-08T04:49:17.393Z,990.13
2019-03-08T04:50:21.678Z,990.14
2019-03-08T04:51:25.912Z,990.08
2019-03-08T04:52:30.156Z,990.14
2019-03-08T04:53:34.396Z,990.12
2019-03-08T04:54:38.660Z,990.13
2019-03-08T04:55:42.956Z,990.14
2019-03-08T04:56:47.209Z,990.13
2019-03-08T04:57:51.439Z,990.12
2019-03-08T04:58:55.576Z,990.17
2019-03-08T04:59:59.935Z,990.16
2019-03-08T05:01:04.153Z,990.22
2019-03-08T05:02:08.296Z,990.15
2019-03-08T05:03:12.582Z,990.16
2019-03-08T05:04:16.838Z,990.19
2019-03-08T05:05:21.028Z,990.26
2019-03-08T05:06:25.192Z,990.24
2019-03-08T05:07:29.486Z,990.25
2019-03-08T05:08:33.627Z,990.21
2019-03-08T05:09:37.941Z,990.23
2019-03-08T05:10:42.208Z,990.22
2019-03-08T05:11:46.409Z,990.22
2019-03-08T05:12:50.666Z,990.18
2019-03-08T05:13:54.860Z,990.23
2019-03-08T05:14:59.016Z,990.23
2019-03-08T05:16:03.356Z,990.20
2019-03-08T05:17:07.486Z,990.21
2019-03-08T05:18:11.762Z,990.25
2019-03-08T05:19:15.900Z,990.29
2019-03-08T05:20:20.112Z,990.25
2019-03-08T05:21:24.393Z,990.30
2019-03-08T05:22:28.452Z,990.32
2019-03-08T05:23:32.812Z,990.33
2019-03-08T05:24:37.122Z,990.29
2019-03-08T05:25:41.427Z,990.22
2019-03-08T05:26:45.537Z,990.28
2019-03-08T05:27:49.856Z,990.32
2019-03-08T05:28:54.010Z,990.37
2019-03-08T05:29:58.206Z,990.45
2019-03-08T05:31:02.441Z,990.44
2019-03-08T05:32:06.735Z,990.44
2019-03-08T05:33:10.872Z,990.49
2019-03-08T05:34:15.201Z,990.49
2019-03-08T05:35:19.332Z,990.54
2019-03-08T05:36:23.878Z,990.56
2019-03-08T05:37:28.013Z,990.59
2019-03-08T05:38:32.114Z,990.63
2019-03-08T05:39:36.395Z,990.63
2019-03-08T05:40:40.628Z,990.62
2019-03-08T05:41:44.874Z,990.68
2019-03-08T05:42:49.094Z,990.66
2019-03-08T05:43:53.358Z,990.65
2019-03-08T05:44:57.498Z,990.65
2019-03-08T05:46:01.764Z,990.66
2019-03-08T05:47:05.967Z,990.72
2019-03-08T05:48:10.254Z,990.73
2019-03-08T05:49:14.491Z,990.79
2019-03-08T05:50:18.629Z,990.76
2019-03-08T05:51:22.983Z,990.82
2019-03-08T05:52:27.177Z,990.77
2019-03-08T05:53:31.421Z,990.79
2019-03-08T05:54:35.658Z,990.85
2019-03-08T05:55:39.849Z,990.80
2019-03-08T05:56:44.126Z,990.79
2019-03-08T05:57:48.311Z,990.82
2019-03-08T05:58:52.482Z,990.81
2019-03-08T05:59:56.784Z,990.80
2019-03-08T06:01:01.049Z,990.85
2019-03-08T06:02:05.226Z,990.91
2019-03-08T06:03:09.495Z,990.95
2019-03-08T06:04:13.651Z,990.99
2019-03-08T06:05:17.843Z,990.96
2019-03-08T06:06:22.133Z,990.99
2019-03-08T06:07:26.394Z,991.04
2019-03-08T06:08:30.524Z,991.01
2019-03-08T06:09:34.788Z,991.00
2019-03-08T06:10:38.928Z,991.03
2019-03-08T06:11:43.155Z,991.07
2019-03-08T06:12:47.387Z,991.07
2019-03-08T06:13:51.599Z,991.07
2019-03-08T06:14:55.815Z,991.12
2019-03-08T06:16:00.134Z,991.15
2019-03-08T06:17:04.379Z,991.15
2019-03-08T06:18:08.600Z,991.17
2019-03-08T06:19:12.770Z,991.15
2019-03-08T06:20:17.086Z,991.13
2019-03-08T06:21:21.298Z,991.15
2019-03-08T06:22:25.561Z,991.19
2019-03-08T06:23:29.801Z,991.20
2019-03-08T06:24:33.928Z,991.17
2019-03-08T06:25:38.244Z,991.19
2019-03-08T06:26:42.499Z,991.21
2019-03-08T06:27:46.801Z,991.17
2019-03-08T06:28:51.048Z,991.25
2019-03-08T06:29:55.360Z,991.22
2019-03-08T06:30:59.591Z,991.25
2019-03-08T06:32:03.842Z,991.24
2019-03-08T06:33:08.123Z,991.26
2019-03-08T06:34:12.342Z,991.24
2019-03-08T06:35:16.532Z,991.24
2019-03-08T06:36:20.841Z,991.21
2019-03-08T06:37:25.096Z,991.25
2019-03-08T06:38:29.365Z,991.28
2019-03-08T06:39:33.555Z,991.28
2019-03-08T06:40:37.737Z,991.28
2019-03-08T06:41:42.060Z,991.28
2019-03-08T06:42:46.305Z,991.36
2019-03-08T06:43:50.461Z,991.38
2019-03-08T06:44:54.814Z,991.41
2019-03-08T06:45:59.091Z,991.39
2019-03-08T06:47:03.364Z,991.44
2019-03-08T06:48:07.495Z,991.46
2019-03-08T06:49:11.656Z,991.49
2019-03-08T06:50:15.989Z,991.48
2019-03-08T06:51:20.211Z,991.49
2019-03-08T06:52:24.377Z,991.50
2019-03-08T06:53:28.745Z,991.50
2019-03-08T06:54:32.949Z,991.55
2019-03-08T06:55:37.212Z,991.53
2019-03-08T06:56:41.369Z,991.62
2019-03-08T06:57:45.651Z,991.56
2019-03-08T06:58:49.901Z,991.59
2019-03-08T06:59:54.165Z,991.61
2019-03-08T07:00:58.396Z,991.60
2019-03-08T07:02:02.545Z,991.61
2019-03-08T07:03:06.884Z,991.65
2019-03-08T07:04:11.099Z,991.67
2019-03-08T07:05:15.297Z,991.63
2019-03-08T07:06:19.472Z,991.66
2019-03-08T07:07:23.775Z,991.72
2019-03-08T07:08:28.064Z,991.70
2019-03-08T07:09:32.269Z,991.73
2019-03-08T07:10:36.556Z,991.73
2019-03-08T07:11:40.773Z,991.73
2019-03-08T07:12:45.016Z,991.74
2019-03-08T07:13:49.176Z,991.77
2019-03-08T07:14:53.339Z,991.80
2019-03-08T07:15:57.781Z,991.79
2019-03-08T07:17:01.881Z,991.83
2019-03-08T07:18:12.767Z,991.84
2019-03-08T07:19:10.422Z,991.86
2019-03-08T07:20:14.691Z,991.90
2019-03-08T07:21:18.851Z,991.92
2019-03-08T07:22:23.152Z,991.89
2019-03-08T07:23:28.201Z,991.91
2019-03-08T07:24:31.573Z,991.93
2019-03-08T07:25:35.744Z,991.98
2019-03-08T07:26:39.963Z,992.04
2019-03-08T07:27:44.166Z,992.04
2019-03-08T07:28:48.422Z,992.09
2019-03-08T07:29:52.678Z,992.08
2019-03-08T07:30:58.146Z,992.12
2019-03-08T07:32:01.190Z,992.11
2019-03-08T07:33:05.333Z,992.12
2019-03-08T07:34:11.114Z,992.10
2019-03-08T07:35:13.838Z,992.15
2019-03-08T07:36:18.116Z,992.25
2019-03-08T07:37:22.354Z,992.29
2019-03-08T07:38:26.559Z,992.33
2019-03-08T07:39:30.737Z,992.38
2019-03-08T07:40:35.033Z,992.44
2019-03-08T07:41:39.138Z,992.52
2019-03-08T07:42:45.050Z,992.53
2019-03-08T07:43:47.638Z,992.62
2019-03-08T07:44:51.867Z,992.62
2019-03-08T07:45:56.098Z,992.66
2019-03-08T07:47:00.363Z,992.69
2019-03-08T07:48:04.611Z,992.79
2019-03-08T07:49:08.820Z,992.81
2019-03-08T07:50:12.980Z,992.78
2019-03-08T07:51:17.198Z,992.83
2019-03-08T07:52:21.474Z,992.95
2019-03-08T07:53:25.746Z,992.92
2019-03-08T07:54:30.022Z,993.01
2019-03-08T07:55:34.207Z,993.06
2019-03-08T07:56:38.486Z,993.13
2019-03-08T07:57:42.659Z,993.16
2019-03-08T07:58:46.861Z,993.26
2019-03-08T07:59:54.002Z,993.31
2019-03-08T08:00:55.328Z,993.31
2019-03-08T08:01:59.539Z,993.37
2019-03-08T08:03:04.383Z,993.38
2019-03-08T08:04:08.014Z,993.44
2019-03-08T08:05:12.450Z,993.57
2019-03-08T08:06:16.567Z,993.61
2019-03-08T08:07:20.778Z,993.64
2019-03-08T08:08:25.056Z,993.71
2019-03-08T08:09:29.365Z,993.79
2019-03-08T08:10:33.586Z,993.79
2019-03-08T08:11:37.833Z,993.88
2019-03-08T08:12:41.975Z,993.92
2019-03-08T08:13:46.296Z,993.92
2019-03-08T08:14:50.575Z,994.01
2019-03-08T08:15:55.886Z,994.11
2019-03-08T08:16:59.699Z,994.17
2019-03-08T08:18:03.858Z,994.18
2019-03-08T08:19:08.076Z,994.22
2019-03-08T08:20:16.435Z,994.32
2019-03-08T08:21:16.619Z,994.35
2019-03-08T08:22:20.877Z,994.44
2019-03-08T08:23:33.854Z,994.46
2019-03-08T08:24:29.141Z,994.48
2019-03-08T08:25:36.702Z,994.55
2019-03-08T08:26:37.698Z,994.60
2019-03-08T08:27:41.928Z,994.63
2019-03-08T08:28:49.885Z,994.71
2019-03-08T08:29:50.414Z,994.70
2019-03-08T08:30:54.668Z,994.79
2019-03-08T08:31:58.883Z,994.83
2019-03-08T08:33:03.010Z,994.95
2019-03-08T08:34:07.289Z,995.01
2019-03-08T08:35:11.432Z,995.08
2019-03-08T08:36:15.676Z,995.09
2019-03-08T08:37:19.957Z,995.20
2019-03-08T08:38:24.212Z,995.21
2019-03-08T08:39:28.447Z,995.23
2019-03-08T08:40:32.703Z,995.37
2019-03-08T08:41:36.910Z,995.37
2019-03-08T08:42:41.165Z,995.53
2019-03-08T08:43:45.308Z,995.50
2019-03-08T08:44:49.613Z,995.61
2019-03-08T08:45:53.863Z,995.58
2019-03-08T08:46:58.002Z,995.63
2019-03-08T08:48:02.198Z,995.64
2019-03-08T08:49:06.513Z,995.74
2019-03-08T08:50:10.739Z,995.79
2019-03-08T08:51:15.012Z,995.85
2019-03-08T08:52:19.246Z,995.93
2019-03-08T08:53:23.583Z,995.92
2019-03-08T08:54:27.897Z,995.88
2019-03-08T08:55:32.095Z,996.05
2019-03-08T08:56:36.270Z,996.02
2019-03-08T08:57:40.426Z,996.06
2019-03-08T08:58:44.695Z,996.12
2019-03-08T08:59:48.812Z,996.18
2019-03-08T09:00:56.060Z,996.26
2019-03-08T09:01:59.353Z,996.41
2019-03-08T09:03:03.585Z,996.44
2019-03-08T09:04:07.823Z,996.33
2019-03-08T09:05:12.083Z,996.44
2019-03-08T09:06:16.355Z,996.46
2019-03-08T09:07:20.562Z,996.46
2019-03-08T09:08:24.702Z,996.49
2019-03-08T09:09:29.005Z,996.52
2019-03-08T09:10:33.247Z,996.57
2019-03-08T09:11:44.180Z,996.62
2019-03-08T09:12:41.704Z,996.61
2019-03-08T09:13:45.815Z,996.63
2019-03-08T09:14:50.017Z,996.70
2019-03-08T09:15:54.250Z,996.77
2019-03-08T09:16:58.641Z,996.76
2019-03-08T09:18:02.806Z,996.76
2019-03-08T09:19:06.912Z,996.74
2019-03-08T09:20:11.188Z,996.75
2019-03-08T09:21:15.350Z,996.78
2019-03-08T09:22:19.567Z,996.95
2019-03-08T09:23:23.750Z,996.88
2019-03-08T09:24:27.967Z,996.94
2019-03-08T09:25:32.240Z,996.96
2019-03-08T09:26:36.486Z,996.95
2019-03-08T09:27:40.630Z,997.01
2019-03-08T09:28:44.927Z,997.05
2019-03-08T09:29:49.199Z,997.01
2019-03-08T09:30:53.339Z,997.09
2019-03-08T09:31:57.661Z,997.16
2019-03-08T09:33:01.934Z,997.19
2019-03-08T09:34:06.163Z,997.16
2019-03-08T09:35:12.413Z,997.18
2019-03-08T09:36:14.661Z,997.25
2019-03-08T09:37:18.814Z,997.35
2019-03-08T09:38:23.084Z,997.28
2019-03-08T09:39:27.249Z,997.36
2019-03-08T09:40:31.553Z,997.37
2019-03-08T09:41:35.774Z,997.38
2019-03-08T09:42:40.046Z,997.40
2019-03-08T09:43:44.205Z,997.47
2019-03-08T09:44:48.505Z,997.44
2019-03-08T09:45:52.683Z,997.50
2019-03-08T09:46:57.003Z,997.52
2019-03-08T09:48:01.187Z,997.55
2019-03-08T09:49:05.478Z,997.67
2019-03-08T09:50:09.612Z,997.68
2019-03-08T09:51:13.897Z,997.66
2019-03-08T09:52:18.031Z,997.66
2019-03-08T09:53:22.340Z,997.68
2019-03-08T09:54:26.597Z,997.73
2019-03-08T09:55:30.835Z,997.75
2019-03-08T09:56:35.086Z,997.88
2019-03-08T09:57:39.339Z,997.86
2019-03-08T09:58:43.599Z,997.92
2019-03-08T09:59:47.756Z,998.05
2019-03-08T10:00:51.964Z,998.10
2019-03-08T10:01:56.268Z,998.09
2019-03-08T10:03:00.515Z,998.13
2019-03-08T10:04:04.759Z,998.11
2019-03-08T10:05:09.017Z,998.14
2019-03-08T10:06:13.319Z,998.23
2019-03-08T10:07:17.679Z,998.20
2019-03-08T10:08:21.885Z,998.33
2019-03-08T10:09:26.150Z,998.37
2019-03-08T10:10:30.392Z,998.36
2019-03-08T10:11:34.672Z,998.45
2019-03-08T10:12:38.849Z,998.52
2019-03-08T10:13:43.209Z,998.54
2019-03-08T10:14:47.338Z,998.60
2019-03-08T10:15:51.663Z,998.63
2019-03-08T10:16:55.901Z,998.66
2019-03-08T10:18:00.060Z,998.60
2019-03-08T10:19:04.275Z,998.72
2019-03-08T10:20:08.578Z,998.73
2019-03-08T10:21:12.749Z,998.75
2019-03-08T10:22:16.956Z,998.85
2019-03-08T10:23:21.131Z,998.88
2019-03-08T10:24:25.483Z,998.86
2019-03-08T10:25:29.748Z,998.87
2019-03-08T10:26:33.913Z,998.96
2019-03-08T10:27:38.537Z,999.03
2019-03-08T10:28:42.419Z,999.00
2019-03-08T10:29:46.720Z,999.11
2019-03-08T10:30:50.887Z,999.07
2019-03-08T10:31:55.196Z,999.19
2019-03-08T10:32:59.345Z,999.10
2019-03-08T10:34:03.689Z,999.23
2019-03-08T10:35:07.937Z,999.29
2019-03-08T10:36:12.268Z,999.25
2019-03-08T10:37:16.535Z,999.28
2019-03-08T10:38:22.836Z,999.33
2019-03-08T10:39:25.081Z,999.41
2019-03-08T10:40:29.326Z,999.37
2019-03-08T10:41:33.611Z,999.47
2019-03-08T10:42:37.869Z,999.43
2019-03-08T10:43:42.138Z,999.50
2019-03-08T10:44:46.462Z,999.52
2019-03-08T10:45:50.732Z,999.53
2019-03-08T10:46:54.981Z,999.60
2019-03-08T10:47:59.239Z,999.58
2019-03-08T10:49:03.778Z,999.66
2019-03-08T10:50:07.758Z,999.75
2019-03-08T10:51:11.884Z,999.75
2019-03-08T10:52:17.926Z,999.83
2019-03-08T10:53:20.487Z,999.89
2019-03-08T10:54:24.787Z,999.92
2019-03-08T10:55:29.037Z,999.91
2019-03-08T10:56:33.287Z,999.94
2019-03-08T10:57:37.559Z,1000.00
2019-03-08T10:58:41.726Z,1000.05
2019-03-08T10:59:46.098Z,1000.07
2019-03-08T11:00:50.327Z,1000.07
2019-03-08T11:01:54.588Z,1000.18
2019-03-08T11:02:58.851Z,1000.17
2019-03-08T11:04:03.125Z,1000.24
2019-03-08T11:05:07.364Z,1000.14
2019-03-08T11:06:11.639Z,1000.27
2019-03-08T11:07:15.900Z,1000.16
2019-03-08T11:08:29.352Z,1000.36
2019-03-08T11:09:24.466Z,1000.32
2019-03-08T11:10:28.801Z,1000.33
2019-03-08T11:11:33.021Z,1000.36
2019-03-08T11:12:37.278Z,1000.36
2019-03-08T11:13:43.447Z,1000.50
2019-03-08T11:14:45.881Z,1000.48
2019-03-08T11:15:50.117Z,1000.53
2019-03-08T11:16:54.413Z,1000.50
2019-03-08T11:17:58.697Z,1000.63
2019-03-08T11:19:08.735Z,1000.72
2019-03-08T11:20:07.172Z,1000.66
2019-03-08T11:21:11.484Z,1000.64
2019-03-08T11:22:15.739Z,1000.71
2019-03-08T11:23:20.036Z,1000.79
2019-03-08T11:24:24.314Z,1000.74
2019-03-08T11:25:35.037Z,1000.79
2019-03-08T11:26:32.881Z,1000.75
2019-03-08T11:27:37.312Z,1000.85
2019-03-08T11:28:41.538Z,1000.82
2019-03-08T11:29:45.839Z,1000.89
2019-03-08T11:30:53.971Z,1000.89
2019-03-08T11:31:54.431Z,1000.95
2019-03-08T11:32:58.685Z,1000.99
2019-03-08T11:34:02.984Z,1000.99
2019-03-08T11:35:07.270Z,1001.09
2019-03-08T11:36:11.542Z,1001.02
2019-03-08T11:37:18.831Z,1001.13
2019-03-08T11:38:22.819Z,1001.16
2019-03-08T11:39:26.461Z,1001.17
2019-03-08T11:40:30.754Z,1001.22
2019-03-08T11:41:35.035Z,1001.23
2019-03-08T11:42:39.233Z,1001.22
2019-03-08T11:43:43.557Z,1001.26
2019-03-08T11:44:47.942Z,1001.37
2019-03-08T11:45:52.274Z,1001.34
2019-03-08T11:46:56.495Z,1001.43
2019-03-08T11:48:00.775Z,1001.48
2019-03-08T11:49:05.057Z,1001.50
2019-03-08T11:50:09.390Z,1001.51
2019-03-08T11:51:13.685Z,1001.63
2019-03-08T11:52:17.931Z,1001.60
2019-03-08T11:53:22.228Z,1001.61
2019-03-08T11:54:26.392Z,1001.65
2019-03-08T11:55:30.747Z,1001.71
2019-03-08T11:56:35.164Z,1001.80
2019-03-08T11:57:39.321Z,1001.73
2019-03-08T11:58:43.595Z,1001.76
2019-03-08T11:59:47.891Z,1001.85
2019-03-08T12:00:53.198Z,1001.86
2019-03-08T12:01:56.488Z,1001.91
2019-03-08T12:03:00.766Z,1001.92
2019-03-08T12:04:05.135Z,1001.99
2019-03-08T12:05:09.385Z,1001.93
2019-03-08T12:06:13.677Z,1002.01
2019-03-08T12:07:17.960Z,1002.02
2019-03-08T12:08:22.160Z,1002.05
2019-03-08T12:09:26.480Z,1002.04
2019-03-08T12:10:30.769Z,1002.11
2019-03-08T12:11:35.099Z,1002.13
2019-03-08T12:12:39.457Z,1002.11
2019-03-08T12:13:43.704Z,1002.18
2019-03-08T12:14:48.085Z,1002.18
2019-03-08T12:15:52.352Z,1002.26
2019-03-08T12:16:56.615Z,1002.29
2019-03-08T12:18:00.922Z,1002.29
2019-03-08T12:19:05.184Z,1002.21
2019-03-08T12:20:09.468Z,1002.29
2019-03-08T12:21:13.743Z,1002.32
2019-03-08T12:22:18.042Z,1002.40
2019-03-08T12:23:22.309Z,1002.41
2019-03-08T12:24:26.638Z,1002.48
2019-03-08T12:25:30.947Z,1002.50
2019-03-08T12:26:35.256Z,1002.51
2019-03-08T12:27:39.510Z,1002.55
2019-03-08T12:28:43.792Z,1002.59
2019-03-08T12:29:48.084Z,1002.64
2019-03-08T12:30:52.334Z,1002.66
2019-03-08T12:31:56.733Z,1002.73
2019-03-08T12:33:01.061Z,1002.65
2019-03-08T12:34:05.336Z,1002.66
2019-03-08T12:35:09.632Z,1002.68
2019-03-08T12:36:13.959Z,1002.60
2019-03-08T12:37:18.243Z,1002.64
2019-03-08T12:38:22.431Z,1002.65
2019-03-08T12:39:26.753Z,1002.70
2019-03-08T12:40:31.056Z,1002.78
2019-03-08T12:41:35.361Z,1002.87
2019-03-08T12:42:39.651Z,1002.88
2019-03-08T12:43:45.097Z,1002.85
2019-03-08T12:44:48.265Z,1002.78
2019-03-08T12:45:52.592Z,1002.86
2019-03-08T12:46:56.815Z,1002.98
2019-03-08T12:48:01.044Z,1002.98
2019-03-08T12:49:05.414Z,1002.99
2019-03-08T12:50:09.690Z,1003.05
2019-03-08T12:51:14.054Z,1003.08
2019-03-08T12:52:18.337Z,1003.15
2019-03-08T12:53:22.601Z,1003.19
2019-03-08T12:54:26.936Z,1003.21
2019-03-08T12:55:31.221Z,1003.27
2019-03-08T12:56:35.485Z,1003.20
2019-03-08T12:57:39.793Z,1003.25
2019-03-08T12:58:44.174Z,1003.25
2019-03-08T12:59:48.430Z,1003.26
2019-03-08T13:00:52.728Z,1003.31
2019-03-08T13:01:57.032Z,1003.29
2019-03-08T13:03:01.339Z,1003.30
2019-03-08T13:04:05.714Z,1003.40
2019-03-08T13:05:09.968Z,1003.32
2019-03-08T13:06:14.263Z,1003.37
2019-03-08T13:07:18.595Z,1003.42
2019-03-08T13:08:22.848Z,1003.45
2019-03-08T13:09:27.145Z,1003.46
2019-03-08T13:10:31.469Z,1003.42
2019-03-08T13:11:35.694Z,1003.38
2019-03-08T13:12:40.054Z,1003.48
2019-03-08T13:13:44.320Z,1003.58
2019-03-08T13:14:48.720Z,1003.52
2019-03-08T13:15:52.954Z,1003.54
2019-03-08T13:16:57.272Z,1003.47